sensor_id;sensor_type;location;lat;lon;timestamp;temperature;humidity
8820;DHT22;4446;50.876;4.736;2023-11-19T00:00:06;13.20;99.90
8820;DHT22;4446;50.876;4.736;2023-11-19T00:02:38;13.10;99.90
8820;DHT22;4446;50.876;4.736;2023-11-19T00:05:05;13.10;99.90
8820;DHT22;4446;50.876;4.736;2023-11-19T00:07:35;13.20;99.90
8820;DHT22;4446;50.876;4.736;2023-11-19T00:10:03;13.20;99.90
8820;DHT22;4446;50.876;4.736;2023-11-19T00:12:32;13.10;99.90
8820;DHT22;4446;50.876;4.736;2023-11-19T00:14:59;13.20;99.90
8820;DHT22;4446;50.876;4.736;2023-11-19T00:17:27;13.20;99.90
8820;DHT22;4446;50.876;4.736;2023-11-19T00:19:55;13.20;99.90
8820;DHT22;4446;50.876;4.736;2023-11-19T00:22:22;13.20;99.90
8820;DHT22;4446;50.876;4.736;2023-11-19T00:24:49;13.20;99.90
8820;DHT22;4446;50.876;4.736;2023-11-19T00:27:16;13.20;99.90
8820;DHT22;4446;50.876;4.736;2023-11-19T00:29:43;13.20;99.90
8820;DHT22;4446;50.876;4.736;2023-11-19T00:32:11;13.20;99.90
8820;DHT22;4446;50.876;4.736;2023-11-19T00:34:38;13.20;99.90
8820;DHT22;4446;50.876;4.736;2023-11-19T00:37:07;13.20;99.90
8820;DHT22;4446;50.876;4.736;2023-11-19T00:39:34;13.20;99.90
8820;DHT22;4446;50.876;4.736;2023-11-19T00:42:01;13.20;99.90
8820;DHT22;4446;50.876;4.736;2023-11-19T00:44:28;13.30;99.90
8820;DHT22;4446;50.876;4.736;2023-11-19T00:46:54;13.20;99.90
8820;DHT22;4446;50.876;4.736;2023-11-19T00:49:21;13.30;99.90
8820;DHT22;4446;50.876;4.736;2023-11-19T00:51:48;13.30;99.90
8820;DHT22;4446;50.876;4.736;2023-11-19T00:54:17;13.30;99.90
8820;DHT22;4446;50.876;4.736;2023-11-19T00:56:44;13.20;99.90
8820;DHT22;4446;50.876;4.736;2023-11-19T00:59:11;13.20;99.90
8820;DHT22;4446;50.876;4.736;2023-11-19T01:01:39;13.20;99.90
8820;DHT22;4446;50.876;4.736;2023-11-19T01:04:06;13.20;99.90
8820;DHT22;4446;50.876;4.736;2023-11-19T01:06:34;13.20;99.90
8820;DHT22;4446;50.876;4.736;2023-11-19T01:09:01;13.20;99.90
8820;DHT22;4446;50.876;4.736;2023-11-19T01:11:29;13.20;99.90
8820;DHT22;4446;50.876;4.736;2023-11-19T01:13:56;13.20;99.90
8820;DHT22;4446;50.876;4.736;2023-11-19T01:16:23;13.20;99.90
8820;DHT22;4446;50.876;4.736;2023-11-19T01:18:50;13.10;99.90
8820;DHT22;4446;50.876;4.736;2023-11-19T01:21:17;13.20;99.90
8820;DHT22;4446;50.876;4.736;2023-11-19T01:23:44;13.10;99.90
8820;DHT22;4446;50.876;4.736;2023-11-19T01:26:11;13.20;99.90
8820;DHT22;4446;50.876;4.736;2023-11-19T01:28:40;13.20;99.90
8820;DHT22;4446;50.876;4.736;2023-11-19T01:31:08;13.20;99.90
8820;DHT22;4446;50.876;4.736;2023-11-19T01:33:36;13.10;99.90
8820;DHT22;4446;50.876;4.736;2023-11-19T01:36:03;13.20;99.90
8820;DHT22;4446;50.876;4.736;2023-11-19T01:38:30;13.20;99.90
8820;DHT22;4446;50.876;4.736;2023-11-19T01:40:57;13.10;99.90
8820;DHT22;4446;50.876;4.736;2023-11-19T01:43:34;13.10;99.90
8820;DHT22;4446;50.876;4.736;2023-11-19T01:46:05;13.10;99.90
8820;DHT22;4446;50.876;4.736;2023-11-19T01:48:33;13.10;99.90
8820;DHT22;4446;50.876;4.736;2023-11-19T01:51:01;13.10;99.90
8820;DHT22;4446;50.876;4.736;2023-11-19T01:53:29;13.10;99.90
8820;DHT22;4446;50.876;4.736;2023-11-19T01:55:57;13.00;99.90
8820;DHT22;4446;50.876;4.736;2023-11-19T01:58:24;13.10;99.90
8820;DHT22;4446;50.876;4.736;2023-11-19T02:00:51;13.10;99.90
8820;DHT22;4446;50.876;4.736;2023-11-19T02:03:20;13.00;99.90
8820;DHT22;4446;50.876;4.736;2023-11-19T02:05:48;13.10;99.90
8820;DHT22;4446;50.876;4.736;2023-11-19T02:08:16;13.00;99.90
8820;DHT22;4446;50.876;4.736;2023-11-19T02:10:43;13.00;99.90
8820;DHT22;4446;50.876;4.736;2023-11-19T02:13:10;13.00;99.90
8820;DHT22;4446;50.876;4.736;2023-11-19T02:15:40;13.00;99.90
8820;DHT22;4446;50.876;4.736;2023-11-19T02:18:22;12.90;99.90
8820;DHT22;4446;50.876;4.736;2023-11-19T02:20:50;12.90;99.90
8820;DHT22;4446;50.876;4.736;2023-11-19T02:23:18;12.80;99.90
8820;DHT22;4446;50.876;4.736;2023-11-19T02:25:55;12.80;99.90
8820;DHT22;4446;50.876;4.736;2023-11-19T02:28:27;12.70;99.90
8820;DHT22;4446;50.876;4.736;2023-11-19T02:30:54;12.60;99.90
8820;DHT22;4446;50.876;4.736;2023-11-19T02:33:21;12.60;99.90
8820;DHT22;4446;50.876;4.736;2023-11-19T02:35:48;12.50;99.90
8820;DHT22;4446;50.876;4.736;2023-11-19T02:38:15;12.50;99.90
8820;DHT22;4446;50.876;4.736;2023-11-19T02:40:42;12.50;99.90
8820;DHT22;4446;50.876;4.736;2023-11-19T02:43:09;12.40;99.90
8820;DHT22;4446;50.876;4.736;2023-11-19T02:45:37;12.30;99.90
8820;DHT22;4446;50.876;4.736;2023-11-19T02:48:05;12.40;99.90
8820;DHT22;4446;50.876;4.736;2023-11-19T02:50:32;12.40;99.90
8820;DHT22;4446;50.876;4.736;2023-11-19T02:52:59;12.40;99.90
8820;DHT22;4446;50.876;4.736;2023-11-19T02:55:26;12.30;99.90
8820;DHT22;4446;50.876;4.736;2023-11-19T02:57:56;12.30;99.90
8820;DHT22;4446;50.876;4.736;2023-11-19T03:00:25;12.20;99.90
8820;DHT22;4446;50.876;4.736;2023-11-19T03:03:01;12.20;99.90
8820;DHT22;4446;50.876;4.736;2023-11-19T03:05:35;12.20;99.90
8820;DHT22;4446;50.876;4.736;2023-11-19T03:08:02;12.30;99.90
8820;DHT22;4446;50.876;4.736;2023-11-19T03:10:29;12.30;99.90
8820;DHT22;4446;50.876;4.736;2023-11-19T03:12:56;12.40;99.90
8820;DHT22;4446;50.876;4.736;2023-11-19T03:15:25;12.40;99.90
8820;DHT22;4446;50.876;4.736;2023-11-19T03:17:51;12.40;99.90
8820;DHT22;4446;50.876;4.736;2023-11-19T03:20:21;12.40;99.90
8820;DHT22;4446;50.876;4.736;2023-11-19T03:22:49;12.40;99.90
8820;DHT22;4446;50.876;4.736;2023-11-19T03:25:16;12.40;99.90
8820;DHT22;4446;50.876;4.736;2023-11-19T03:27:43;12.40;99.90
8820;DHT22;4446;50.876;4.736;2023-11-19T03:30:11;12.40;99.90
8820;DHT22;4446;50.876;4.736;2023-11-19T03:32:38;12.30;99.90
8820;DHT22;4446;50.876;4.736;2023-11-19T03:35:05;12.20;99.90
8820;DHT22;4446;50.876;4.736;2023-11-19T03:37:36;12.20;99.90
8820;DHT22;4446;50.876;4.736;2023-11-19T03:40:03;12.10;99.90
8820;DHT22;4446;50.876;4.736;2023-11-19T03:42:30;12.10;99.90
8820;DHT22;4446;50.876;4.736;2023-11-19T03:44:58;12.10;99.90
8820;DHT22;4446;50.876;4.736;2023-11-19T03:47:25;12.10;99.90
8820;DHT22;4446;50.876;4.736;2023-11-19T03:49:52;12.20;99.90
8820;DHT22;4446;50.876;4.736;2023-11-19T03:52:19;12.00;99.90
8820;DHT22;4446;50.876;4.736;2023-11-19T03:54:47;11.90;99.90
8820;DHT22;4446;50.876;4.736;2023-11-19T03:57:14;11.80;99.90
8820;DHT22;4446;50.876;4.736;2023-11-19T03:59:42;11.80;99.90
8820;DHT22;4446;50.876;4.736;2023-11-19T04:02:09;11.80;99.90
8820;DHT22;4446;50.876;4.736;2023-11-19T04:04:36;11.70;99.90
8820;DHT22;4446;50.876;4.736;2023-11-19T04:07:04;11.70;99.90
8820;DHT22;4446;50.876;4.736;2023-11-19T04:09:31;11.60;99.90
8820;DHT22;4446;50.876;4.736;2023-11-19T04:12:00;11.50;99.90
8820;DHT22;4446;50.876;4.736;2023-11-19T04:14:27;11.60;99.90
8820;DHT22;4446;50.876;4.736;2023-11-19T04:16:54;11.60;99.90
8820;DHT22;4446;50.876;4.736;2023-11-19T04:19:21;11.60;99.90
8820;DHT22;4446;50.876;4.736;2023-11-19T04:21:48;11.60;99.90
8820;DHT22;4446;50.876;4.736;2023-11-19T04:24:15;11.60;99.90
8820;DHT22;4446;50.876;4.736;2023-11-19T04:26:43;11.70;99.90
8820;DHT22;4446;50.876;4.736;2023-11-19T04:29:13;11.70;99.90
8820;DHT22;4446;50.876;4.736;2023-11-19T04:31:43;11.80;99.90
8820;DHT22;4446;50.876;4.736;2023-11-19T04:34:11;11.80;99.90
8820;DHT22;4446;50.876;4.736;2023-11-19T04:36:38;11.90;99.90
8820;DHT22;4446;50.876;4.736;2023-11-19T04:39:05;11.90;99.90
8820;DHT22;4446;50.876;4.736;2023-11-19T04:41:35;11.80;99.90
8820;DHT22;4446;50.876;4.736;2023-11-19T04:44:02;11.80;99.90
8820;DHT22;4446;50.876;4.736;2023-11-19T04:46:30;11.90;99.90
8820;DHT22;4446;50.876;4.736;2023-11-19T04:48:57;11.90;99.90
8820;DHT22;4446;50.876;4.736;2023-11-19T04:51:24;11.80;99.90
8820;DHT22;4446;50.876;4.736;2023-11-19T04:53:51;11.80;99.90
8820;DHT22;4446;50.876;4.736;2023-11-19T04:56:18;11.80;99.90
8820;DHT22;4446;50.876;4.736;2023-11-19T04:58:47;11.70;99.90
8820;DHT22;4446;50.876;4.736;2023-11-19T05:01:14;11.80;99.90
8820;DHT22;4446;50.876;4.736;2023-11-19T05:03:44;11.80;99.90
8820;DHT22;4446;50.876;4.736;2023-11-19T05:06:12;11.80;99.90
8820;DHT22;4446;50.876;4.736;2023-11-19T05:08:39;11.80;99.90
8820;DHT22;4446;50.876;4.736;2023-11-19T05:11:06;11.80;99.90
8820;DHT22;4446;50.876;4.736;2023-11-19T05:13:33;11.80;99.90
8820;DHT22;4446;50.876;4.736;2023-11-19T05:15:59;11.80;99.90
8820;DHT22;4446;50.876;4.736;2023-11-19T05:18:26;11.70;99.90
8820;DHT22;4446;50.876;4.736;2023-11-19T05:20:55;11.70;99.90
8820;DHT22;4446;50.876;4.736;2023-11-19T05:23:22;11.70;99.90
8820;DHT22;4446;50.876;4.736;2023-11-19T05:25:49;11.70;99.90
8820;DHT22;4446;50.876;4.736;2023-11-19T05:28:16;11.70;99.90
8820;DHT22;4446;50.876;4.736;2023-11-19T05:30:43;11.70;99.90
8820;DHT22;4446;50.876;4.736;2023-11-19T05:33:10;11.60;99.90
8820;DHT22;4446;50.876;4.736;2023-11-19T05:35:37;11.60;99.90
8820;DHT22;4446;50.876;4.736;2023-11-19T05:38:05;11.50;99.90
8820;DHT22;4446;50.876;4.736;2023-11-19T05:40:32;11.50;99.90
8820;DHT22;4446;50.876;4.736;2023-11-19T05:42:59;11.40;99.90
8820;DHT22;4446;50.876;4.736;2023-11-19T05:45:26;11.40;99.90
8820;DHT22;4446;50.876;4.736;2023-11-19T05:47:53;11.30;99.90
8820;DHT22;4446;50.876;4.736;2023-11-19T05:50:20;11.30;99.90
8820;DHT22;4446;50.876;4.736;2023-11-19T05:52:47;11.20;99.90
8820;DHT22;4446;50.876;4.736;2023-11-19T05:55:15;11.20;99.90
8820;DHT22;4446;50.876;4.736;2023-11-19T05:57:42;11.30;99.90
8820;DHT22;4446;50.876;4.736;2023-11-19T06:00:11;11.30;99.90
8820;DHT22;4446;50.876;4.736;2023-11-19T06:02:39;11.40;99.90
8820;DHT22;4446;50.876;4.736;2023-11-19T06:05:06;11.40;99.90
8820;DHT22;4446;50.876;4.736;2023-11-19T06:07:35;11.40;99.90
8820;DHT22;4446;50.876;4.736;2023-11-19T06:10:03;11.40;99.90
8820;DHT22;4446;50.876;4.736;2023-11-19T06:12:33;11.40;99.90
8820;DHT22;4446;50.876;4.736;2023-11-19T06:15:04;11.50;99.90
8820;DHT22;4446;50.876;4.736;2023-11-19T06:17:32;11.40;99.90
8820;DHT22;4446;50.876;4.736;2023-11-19T06:19:59;11.30;99.90
8820;DHT22;4446;50.876;4.736;2023-11-19T06:22:26;11.30;99.90
8820;DHT22;4446;50.876;4.736;2023-11-19T06:24:52;11.20;99.90
8820;DHT22;4446;50.876;4.736;2023-11-19T06:27:20;11.10;99.90
8820;DHT22;4446;50.876;4.736;2023-11-19T06:29:49;11.10;99.90
8820;DHT22;4446;50.876;4.736;2023-11-19T06:32:16;11.20;99.90
8820;DHT22;4446;50.876;4.736;2023-11-19T06:34:43;11.10;99.90
8820;DHT22;4446;50.876;4.736;2023-11-19T06:37:10;11.00;99.90
8820;DHT22;4446;50.876;4.736;2023-11-19T06:39:37;11.00;99.90
8820;DHT22;4446;50.876;4.736;2023-11-19T06:42:04;11.00;99.90
8820;DHT22;4446;50.876;4.736;2023-11-19T06:44:30;11.00;99.90
8820;DHT22;4446;50.876;4.736;2023-11-19T06:46:59;11.00;99.90
8820;DHT22;4446;50.876;4.736;2023-11-19T06:49:26;10.90;99.90
8820;DHT22;4446;50.876;4.736;2023-11-19T06:51:52;11.00;99.90
8820;DHT22;4446;50.876;4.736;2023-11-19T06:54:19;10.90;99.90
8820;DHT22;4446;50.876;4.736;2023-11-19T06:56:46;10.90;99.90
8820;DHT22;4446;50.876;4.736;2023-11-19T06:59:14;10.90;99.90
8820;DHT22;4446;50.876;4.736;2023-11-19T07:01:42;10.80;99.90
8820;DHT22;4446;50.876;4.736;2023-11-19T07:04:12;10.90;99.90
8820;DHT22;4446;50.876;4.736;2023-11-19T07:06:39;10.80;99.90
8820;DHT22;4446;50.876;4.736;2023-11-19T07:09:06;10.80;99.90
8820;DHT22;4446;50.876;4.736;2023-11-19T07:11:36;10.80;99.90
8820;DHT22;4446;50.876;4.736;2023-11-19T07:14:04;10.90;99.90
8820;DHT22;4446;50.876;4.736;2023-11-19T07:16:32;10.80;99.90
8820;DHT22;4446;50.876;4.736;2023-11-19T07:19:00;10.90;99.90
8820;DHT22;4446;50.876;4.736;2023-11-19T07:21:28;10.80;99.90
8820;DHT22;4446;50.876;4.736;2023-11-19T07:23:55;10.70;99.90
8820;DHT22;4446;50.876;4.736;2023-11-19T07:26:22;10.80;99.90
8820;DHT22;4446;50.876;4.736;2023-11-19T07:28:49;10.80;99.90
8820;DHT22;4446;50.876;4.736;2023-11-19T07:31:17;10.80;99.90
8820;DHT22;4446;50.876;4.736;2023-11-19T07:33:44;10.80;99.90
8820;DHT22;4446;50.876;4.736;2023-11-19T07:36:12;10.70;99.90
8820;DHT22;4446;50.876;4.736;2023-11-19T07:38:40;10.80;99.90
8820;DHT22;4446;50.876;4.736;2023-11-19T07:41:07;10.80;99.90
8820;DHT22;4446;50.876;4.736;2023-11-19T07:43:39;10.80;99.90
8820;DHT22;4446;50.876;4.736;2023-11-19T07:46:10;10.80;99.90
8820;DHT22;4446;50.876;4.736;2023-11-19T07:48:38;10.80;99.90
8820;DHT22;4446;50.876;4.736;2023-11-19T07:51:05;10.90;99.90
8820;DHT22;4446;50.876;4.736;2023-11-19T07:53:33;10.90;99.90
8820;DHT22;4446;50.876;4.736;2023-11-19T07:56:01;11.00;99.90
8820;DHT22;4446;50.876;4.736;2023-11-19T07:58:28;10.90;99.90
8820;DHT22;4446;50.876;4.736;2023-11-19T08:00:55;11.00;99.90
8820;DHT22;4446;50.876;4.736;2023-11-19T08:03:22;11.00;99.90
8820;DHT22;4446;50.876;4.736;2023-11-19T08:05:49;11.10;99.90
8820;DHT22;4446;50.876;4.736;2023-11-19T08:08:16;11.10;99.90
8820;DHT22;4446;50.876;4.736;2023-11-19T08:10:43;11.00;99.90
8820;DHT22;4446;50.876;4.736;2023-11-19T08:13:11;11.00;99.90
8820;DHT22;4446;50.876;4.736;2023-11-19T08:15:38;11.00;99.90
8820;DHT22;4446;50.876;4.736;2023-11-19T08:18:06;11.20;99.90
8820;DHT22;4446;50.876;4.736;2023-11-19T08:20:33;11.30;99.90
8820;DHT22;4446;50.876;4.736;2023-11-19T08:23:02;11.40;99.90
8820;DHT22;4446;50.876;4.736;2023-11-19T08:25:30;11.40;99.90
8820;DHT22;4446;50.876;4.736;2023-11-19T08:27:59;11.50;99.90
8820;DHT22;4446;50.876;4.736;2023-11-19T08:30:27;11.50;99.90
8820;DHT22;4446;50.876;4.736;2023-11-19T08:32:54;11.40;99.90
8820;DHT22;4446;50.876;4.736;2023-11-19T08:35:21;11.40;99.90
8820;DHT22;4446;50.876;4.736;2023-11-19T08:37:49;11.50;99.90
8820;DHT22;4446;50.876;4.736;2023-11-19T08:40:16;11.50;99.90
8820;DHT22;4446;50.876;4.736;2023-11-19T08:42:43;11.50;99.90
8820;DHT22;4446;50.876;4.736;2023-11-19T08:45:11;11.50;99.90
8820;DHT22;4446;50.876;4.736;2023-11-19T08:47:39;11.50;99.90
8820;DHT22;4446;50.876;4.736;2023-11-19T08:50:07;11.50;99.90
8820;DHT22;4446;50.876;4.736;2023-11-19T08:52:34;11.60;99.90
8820;DHT22;4446;50.876;4.736;2023-11-19T08:55:01;11.60;99.90
8820;DHT22;4446;50.876;4.736;2023-11-19T08:57:28;11.60;99.90
8820;DHT22;4446;50.876;4.736;2023-11-19T08:59:55;11.80;99.90
8820;DHT22;4446;50.876;4.736;2023-11-19T09:02:22;11.80;99.90
8820;DHT22;4446;50.876;4.736;2023-11-19T09:04:51;12.00;99.90
8820;DHT22;4446;50.876;4.736;2023-11-19T09:07:17;12.10;99.90
8820;DHT22;4446;50.876;4.736;2023-11-19T09:09:44;12.20;99.90
8820;DHT22;4446;50.876;4.736;2023-11-19T09:12:11;12.20;99.90
8820;DHT22;4446;50.876;4.736;2023-11-19T09:14:39;12.10;99.90
8820;DHT22;4446;50.876;4.736;2023-11-19T09:17:07;12.10;99.90
8820;DHT22;4446;50.876;4.736;2023-11-19T09:19:35;11.90;99.90
8820;DHT22;4446;50.876;4.736;2023-11-19T09:22:03;11.80;99.90
8820;DHT22;4446;50.876;4.736;2023-11-19T09:24:30;11.80;99.90
8820;DHT22;4446;50.876;4.736;2023-11-19T09:27:01;11.80;99.90
8820;DHT22;4446;50.876;4.736;2023-11-19T09:29:27;11.80;99.90
8820;DHT22;4446;50.876;4.736;2023-11-19T09:31:57;11.90;99.90
8820;DHT22;4446;50.876;4.736;2023-11-19T09:34:24;12.00;99.90
8820;DHT22;4446;50.876;4.736;2023-11-19T09:36:51;12.00;99.90
8820;DHT22;4446;50.876;4.736;2023-11-19T09:39:19;11.90;99.90
8820;DHT22;4446;50.876;4.736;2023-11-19T09:41:47;11.90;99.90
8820;DHT22;4446;50.876;4.736;2023-11-19T09:44:15;11.90;99.90
8820;DHT22;4446;50.876;4.736;2023-11-19T09:46:44;12.00;99.90
8820;DHT22;4446;50.876;4.736;2023-11-19T09:49:13;12.10;99.90
8820;DHT22;4446;50.876;4.736;2023-11-19T09:51:41;12.10;99.90
8820;DHT22;4446;50.876;4.736;2023-11-19T09:54:08;12.10;99.90
8820;DHT22;4446;50.876;4.736;2023-11-19T09:56:38;12.20;99.90
8820;DHT22;4446;50.876;4.736;2023-11-19T09:59:05;12.30;99.90
8820;DHT22;4446;50.876;4.736;2023-11-19T10:01:33;12.40;99.90
8820;DHT22;4446;50.876;4.736;2023-11-19T10:04:01;12.40;99.90
8820;DHT22;4446;50.876;4.736;2023-11-19T10:06:29;12.50;99.90
8820;DHT22;4446;50.876;4.736;2023-11-19T10:08:56;12.50;99.90
8820;DHT22;4446;50.876;4.736;2023-11-19T10:11:23;12.60;99.90
8820;DHT22;4446;50.876;4.736;2023-11-19T10:13:52;12.80;99.90
8820;DHT22;4446;50.876;4.736;2023-11-19T10:16:20;13.10;99.90
8820;DHT22;4446;50.876;4.736;2023-11-19T10:18:48;13.30;99.90
8820;DHT22;4446;50.876;4.736;2023-11-19T10:21:17;13.30;99.90
8820;DHT22;4446;50.876;4.736;2023-11-19T10:23:48;13.30;99.90
8820;DHT22;4446;50.876;4.736;2023-11-19T10:26:16;13.20;99.90
8820;DHT22;4446;50.876;4.736;2023-11-19T10:28:43;13.10;99.90
8820;DHT22;4446;50.876;4.736;2023-11-19T10:31:13;13.00;99.90
8820;DHT22;4446;50.876;4.736;2023-11-19T10:33:40;13.00;99.90
8820;DHT22;4446;50.876;4.736;2023-11-19T10:36:09;13.10;99.90
8820;DHT22;4446;50.876;4.736;2023-11-19T10:38:38;13.20;99.90
8820;DHT22;4446;50.876;4.736;2023-11-19T10:41:08;13.20;99.90
8820;DHT22;4446;50.876;4.736;2023-11-19T10:43:43;13.30;99.90
8820;DHT22;4446;50.876;4.736;2023-11-19T10:46:13;13.40;99.90
8820;DHT22;4446;50.876;4.736;2023-11-19T10:48:44;13.50;99.90
8820;DHT22;4446;50.876;4.736;2023-11-19T10:51:13;13.50;99.90
8820;DHT22;4446;50.876;4.736;2023-11-19T10:53:47;13.60;99.90
8820;DHT22;4446;50.876;4.736;2023-11-19T10:56:17;13.70;99.90
8820;DHT22;4446;50.876;4.736;2023-11-19T10:58:49;13.80;99.90
8820;DHT22;4446;50.876;4.736;2023-11-19T11:01:20;13.80;99.90
8820;DHT22;4446;50.876;4.736;2023-11-19T11:03:51;13.70;99.90
8820;DHT22;4446;50.876;4.736;2023-11-19T11:06:19;13.70;99.90
8820;DHT22;4446;50.876;4.736;2023-11-19T11:08:48;13.60;99.90
8820;DHT22;4446;50.876;4.736;2023-11-19T11:11:16;13.50;99.90
8820;DHT22;4446;50.876;4.736;2023-11-19T11:13:47;13.40;99.90
8820;DHT22;4446;50.876;4.736;2023-11-19T11:16:15;13.40;99.90
8820;DHT22;4446;50.876;4.736;2023-11-19T11:18:47;13.30;99.90
8820;DHT22;4446;50.876;4.736;2023-11-19T11:21:20;13.30;99.90
8820;DHT22;4446;50.876;4.736;2023-11-19T11:24:24;13.30;99.90
8820;DHT22;4446;50.876;4.736;2023-11-19T11:27:12;13.40;99.90
8820;DHT22;4446;50.876;4.736;2023-11-19T11:29:50;13.50;99.90
8820;DHT22;4446;50.876;4.736;2023-11-19T11:32:32;13.60;99.90
8820;DHT22;4446;50.876;4.736;2023-11-19T11:35:16;13.60;99.90
8820;DHT22;4446;50.876;4.736;2023-11-19T11:37:53;13.80;99.90
8820;DHT22;4446;50.876;4.736;2023-11-19T11:40:22;13.80;99.90
8820;DHT22;4446;50.876;4.736;2023-11-19T11:42:49;13.90;99.90
8820;DHT22;4446;50.876;4.736;2023-11-19T11:45:18;14.00;99.90
8820;DHT22;4446;50.876;4.736;2023-11-19T11:48:09;13.90;99.90
8820;DHT22;4446;50.876;4.736;2023-11-19T11:50:49;13.80;99.90
8820;DHT22;4446;50.876;4.736;2023-11-19T11:53:17;13.70;99.90
8820;DHT22;4446;50.876;4.736;2023-11-19T11:56:01;13.60;99.90
8820;DHT22;4446;50.876;4.736;2023-11-19T11:58:31;13.50;99.90
8820;DHT22;4446;50.876;4.736;2023-11-19T12:00:58;13.50;99.90
8820;DHT22;4446;50.876;4.736;2023-11-19T12:03:28;13.40;99.90
8820;DHT22;4446;50.876;4.736;2023-11-19T12:05:57;13.50;99.90
8820;DHT22;4446;50.876;4.736;2023-11-19T12:08:26;13.50;99.90
8820;DHT22;4446;50.876;4.736;2023-11-19T12:10:55;13.50;99.90
8820;DHT22;4446;50.876;4.736;2023-11-19T12:13:24;13.60;99.90
8820;DHT22;4446;50.876;4.736;2023-11-19T12:16:10;13.70;99.90
8820;DHT22;4446;50.876;4.736;2023-11-19T12:18:39;14.00;99.90
8820;DHT22;4446;50.876;4.736;2023-11-19T12:21:09;14.10;99.90
8820;DHT22;4446;50.876;4.736;2023-11-19T12:23:48;14.30;99.90
8820;DHT22;4446;50.876;4.736;2023-11-19T12:26:31;14.40;99.90
8820;DHT22;4446;50.876;4.736;2023-11-19T12:28:59;14.50;99.90
8820;DHT22;4446;50.876;4.736;2023-11-19T12:31:26;14.50;99.90
8820;DHT22;4446;50.876;4.736;2023-11-19T12:33:53;14.50;99.90
8820;DHT22;4446;50.876;4.736;2023-11-19T12:36:22;14.40;99.90
8820;DHT22;4446;50.876;4.736;2023-11-19T12:38:49;14.30;99.90
8820;DHT22;4446;50.876;4.736;2023-11-19T12:41:16;14.30;99.90
8820;DHT22;4446;50.876;4.736;2023-11-19T12:43:46;14.10;99.90
8820;DHT22;4446;50.876;4.736;2023-11-19T12:46:20;13.90;99.90
8820;DHT22;4446;50.876;4.736;2023-11-19T12:48:48;13.60;99.90
8820;DHT22;4446;50.876;4.736;2023-11-19T12:51:15;13.50;99.90
8820;DHT22;4446;50.876;4.736;2023-11-19T12:53:50;13.50;99.90
8820;DHT22;4446;50.876;4.736;2023-11-19T12:56:20;13.50;99.90
8820;DHT22;4446;50.876;4.736;2023-11-19T12:58:47;13.60;99.90
8820;DHT22;4446;50.876;4.736;2023-11-19T13:01:16;13.50;99.90
8820;DHT22;4446;50.876;4.736;2023-11-19T13:03:44;13.40;99.90
8820;DHT22;4446;50.876;4.736;2023-11-19T13:06:12;13.30;99.90
8820;DHT22;4446;50.876;4.736;2023-11-19T13:08:42;13.30;99.90
8820;DHT22;4446;50.876;4.736;2023-11-19T13:11:11;13.30;99.90
8820;DHT22;4446;50.876;4.736;2023-11-19T13:13:55;13.30;99.90
8820;DHT22;4446;50.876;4.736;2023-11-19T13:16:22;13.40;99.90
8820;DHT22;4446;50.876;4.736;2023-11-19T13:18:49;13.50;99.90
8820;DHT22;4446;50.876;4.736;2023-11-19T13:21:17;13.60;99.90
8820;DHT22;4446;50.876;4.736;2023-11-19T13:23:44;13.60;99.90
8820;DHT22;4446;50.876;4.736;2023-11-19T13:26:13;13.70;99.90
8820;DHT22;4446;50.876;4.736;2023-11-19T13:28:40;13.70;99.90
8820;DHT22;4446;50.876;4.736;2023-11-19T13:31:07;13.70;99.90
8820;DHT22;4446;50.876;4.736;2023-11-19T13:33:34;13.70;99.90
8820;DHT22;4446;50.876;4.736;2023-11-19T13:36:02;13.80;99.90
8820;DHT22;4446;50.876;4.736;2023-11-19T13:38:32;13.70;99.90
8820;DHT22;4446;50.876;4.736;2023-11-19T13:40:59;13.70;99.90
8820;DHT22;4446;50.876;4.736;2023-11-19T13:43:27;13.70;99.90
8820;DHT22;4446;50.876;4.736;2023-11-19T13:45:54;13.70;99.90
8820;DHT22;4446;50.876;4.736;2023-11-19T13:48:21;13.70;99.90
8820;DHT22;4446;50.876;4.736;2023-11-19T13:50:48;13.70;99.90
8820;DHT22;4446;50.876;4.736;2023-11-19T13:53:15;13.60;99.90
8820;DHT22;4446;50.876;4.736;2023-11-19T13:55:43;13.50;99.90
8820;DHT22;4446;50.876;4.736;2023-11-19T13:58:10;13.50;99.90
8820;DHT22;4446;50.876;4.736;2023-11-19T14:00:38;13.40;99.90
8820;DHT22;4446;50.876;4.736;2023-11-19T14:03:07;13.30;99.90
8820;DHT22;4446;50.876;4.736;2023-11-19T14:05:35;13.20;99.90
8820;DHT22;4446;50.876;4.736;2023-11-19T14:08:02;13.00;99.90
8820;DHT22;4446;50.876;4.736;2023-11-19T14:10:29;12.90;99.90
8820;DHT22;4446;50.876;4.736;2023-11-19T14:12:56;12.80;99.90
8820;DHT22;4446;50.876;4.736;2023-11-19T14:15:24;12.90;99.90
8820;DHT22;4446;50.876;4.736;2023-11-19T14:17:52;12.90;99.90
8820;DHT22;4446;50.876;4.736;2023-11-19T14:20:19;12.80;99.90
8820;DHT22;4446;50.876;4.736;2023-11-19T14:22:46;12.80;99.90
8820;DHT22;4446;50.876;4.736;2023-11-19T14:25:16;12.80;99.90
8820;DHT22;4446;50.876;4.736;2023-11-19T14:27:43;12.80;99.90
8820;DHT22;4446;50.876;4.736;2023-11-19T14:30:12;12.90;99.90
8820;DHT22;4446;50.876;4.736;2023-11-19T14:32:40;12.90;99.90
8820;DHT22;4446;50.876;4.736;2023-11-19T14:35:11;12.90;99.90
8820;DHT22;4446;50.876;4.736;2023-11-19T14:37:38;12.90;99.90
8820;DHT22;4446;50.876;4.736;2023-11-19T14:40:06;12.90;99.90
8820;DHT22;4446;50.876;4.736;2023-11-19T14:42:35;12.90;99.90
8820;DHT22;4446;50.876;4.736;2023-11-19T14:45:02;12.90;99.90
8820;DHT22;4446;50.876;4.736;2023-11-19T14:47:30;12.90;99.90
8820;DHT22;4446;50.876;4.736;2023-11-19T14:49:57;12.80;99.90
8820;DHT22;4446;50.876;4.736;2023-11-19T14:52:25;12.60;99.90
8820;DHT22;4446;50.876;4.736;2023-11-19T14:54:52;12.40;99.90
8820;DHT22;4446;50.876;4.736;2023-11-19T14:57:22;12.30;99.90
8820;DHT22;4446;50.876;4.736;2023-11-19T14:59:49;12.30;99.90
8820;DHT22;4446;50.876;4.736;2023-11-19T15:02:16;12.20;99.90
8820;DHT22;4446;50.876;4.736;2023-11-19T15:04:43;12.20;99.90
8820;DHT22;4446;50.876;4.736;2023-11-19T15:07:10;12.10;99.90
8820;DHT22;4446;50.876;4.736;2023-11-19T15:09:39;12.10;99.90
8820;DHT22;4446;50.876;4.736;2023-11-19T15:12:06;12.10;99.90
8820;DHT22;4446;50.876;4.736;2023-11-19T15:14:33;12.20;99.90
8820;DHT22;4446;50.876;4.736;2023-11-19T15:17:00;12.20;99.90
8820;DHT22;4446;50.876;4.736;2023-11-19T15:19:26;12.20;99.90
8820;DHT22;4446;50.876;4.736;2023-11-19T15:21:54;12.30;99.90
8820;DHT22;4446;50.876;4.736;2023-11-19T15:24:21;12.30;99.90
8820;DHT22;4446;50.876;4.736;2023-11-19T15:26:50;12.30;99.90
8820;DHT22;4446;50.876;4.736;2023-11-19T15:29:17;12.30;99.90
8820;DHT22;4446;50.876;4.736;2023-11-19T15:31:44;12.30;99.90
8820;DHT22;4446;50.876;4.736;2023-11-19T15:34:15;12.30;99.90
8820;DHT22;4446;50.876;4.736;2023-11-19T15:36:42;12.20;99.90
8820;DHT22;4446;50.876;4.736;2023-11-19T15:39:09;12.20;99.90
8820;DHT22;4446;50.876;4.736;2023-11-19T15:41:38;12.30;99.90
8820;DHT22;4446;50.876;4.736;2023-11-19T15:44:07;12.30;99.90
8820;DHT22;4446;50.876;4.736;2023-11-19T15:46:34;12.40;99.90
8820;DHT22;4446;50.876;4.736;2023-11-19T15:49:01;12.50;99.90
8820;DHT22;4446;50.876;4.736;2023-11-19T15:51:35;12.50;99.90
8820;DHT22;4446;50.876;4.736;2023-11-19T15:54:06;12.50;99.90
8820;DHT22;4446;50.876;4.736;2023-11-19T15:56:33;12.50;99.90
8820;DHT22;4446;50.876;4.736;2023-11-19T15:59:00;12.40;99.90
8820;DHT22;4446;50.876;4.736;2023-11-19T16:01:28;12.60;99.90
8820;DHT22;4446;50.876;4.736;2023-11-19T16:03:56;12.60;99.90
8820;DHT22;4446;50.876;4.736;2023-11-19T16:06:23;12.70;99.90
8820;DHT22;4446;50.876;4.736;2023-11-19T16:08:50;12.60;99.90